Aviation Digital Data Service (ADDS)

Output produced by METARs form (2054 UTC 29 May 2017)
found at http://www.aviationweather.gov/adds/metars/
 
DXXX 292028Z 22009KT 9999 FEW013 29/26 Q1013 RETS NOSIG
TAF DXXX 291700Z 2918/3024 20011KT 9999 FEW013 
     PROB30 
     TEMPO 2918/2921 TS BKN013 FEW020CB 
     BECMG 2923/3001 26005KT 
     BECMG 3009/3011 20012KT
       
DXNG 291700Z 24006KT 210V270 9999 SCT008 FEW016CB 31/22 Q1013 NOSIG
TAF DXNG 291700Z 2918/3018 24006KT 9999 FEW013 
     PROB30 
     TEMPO 2918/2922 TS BKN010 FEW018CB 
     TEMPO 3015/3018 TS BKN012 FEW018CB